createdAt,value
2023-04-15T00:01:13.355Z,2.17
2023-04-15T00:03:41.279Z,2.00
2023-04-15T00:06:08.749Z,4.55
2023-04-15T00:08:35.977Z,3.70
2023-04-15T00:11:06.002Z,3.70
2023-04-15T00:13:34.217Z,2.60
2023-04-15T00:16:02.315Z,2.60
2023-04-15T00:18:30.106Z,2.70
2023-04-15T00:20:57.521Z,2.47
2023-04-15T00:23:26.051Z,2.80
2023-04-15T00:25:53.239Z,3.20
2023-04-15T00:28:21.051Z,3.75
2023-04-15T00:30:48.471Z,4.05
2023-04-15T00:33:16.680Z,5.63
2023-04-15T00:35:44.075Z,2.83
2023-04-15T00:38:11.671Z,3.42
2023-04-15T00:40:39.119Z,8.75
2023-04-15T00:43:07.110Z,5.57
2023-04-15T00:45:34.327Z,7.22
2023-04-15T00:48:02.391Z,5.97
2023-04-15T00:50:29.621Z,8.02
2023-04-15T00:52:57.166Z,7.78
2023-04-15T00:55:24.362Z,6.53
2023-04-15T00:57:52.228Z,7.88
2023-04-15T01:00:20.622Z,6.75
2023-04-15T01:05:18.625Z,7.38
2023-04-15T01:07:47.909Z,7.72
2023-04-15T01:10:15.354Z,8.45
2023-04-15T01:12:43.377Z,12.02
2023-04-15T01:15:11.250Z,8.10
2023-04-15T01:17:39.953Z,7.25
2023-04-15T01:20:10.632Z,6.95
2023-04-15T01:22:38.413Z,8.00
2023-04-15T01:25:22.676Z,6.82
2023-04-15T01:27:49.908Z,6.38
2023-04-15T01:30:17.345Z,6.05
2023-04-15T01:32:44.622Z,8.10
2023-04-15T01:35:11.846Z,9.05
2023-04-15T01:37:39.069Z,6.28
2023-04-15T01:40:08.021Z,8.80
2023-04-15T01:42:37.500Z,8.90
2023-04-15T01:45:05.488Z,8.93
2023-04-15T01:47:32.773Z,8.85
2023-04-15T01:50:00.008Z,9.05
2023-04-15T01:52:27.254Z,9.13
2023-04-15T01:54:54.457Z,9.23
2023-04-15T01:57:22.024Z,10.02
2023-04-15T01:59:49.308Z,11.13
2023-04-15T02:02:17.539Z,9.60
2023-04-15T02:04:45.424Z,15.05
2023-04-15T02:07:12.613Z,10.10
2023-04-15T02:09:39.805Z,12.13
2023-04-15T02:12:07.124Z,11.68
2023-04-15T02:14:34.354Z,12.93
2023-04-15T02:17:07.326Z,12.63
2023-04-15T02:19:35.617Z,11.45
2023-04-15T02:24:31.296Z,10.80
2023-04-15T02:26:58.851Z,13.00
2023-04-15T02:29:26.300Z,16.20
2023-04-15T02:31:53.559Z,14.88
2023-04-15T02:34:20.884Z,18.70
2023-04-15T02:36:49.663Z,15.00
2023-04-15T02:39:18.615Z,15.18
2023-04-15T02:41:51.839Z,14.98
2023-04-15T02:44:20.538Z,13.43
2023-04-15T02:46:52.713Z,11.65
2023-04-15T02:49:20.233Z,10.68
2023-04-15T02:51:51.310Z,11.68
2023-04-15T02:54:20.759Z,11.82
2023-04-15T02:56:48.033Z,12.10
2023-04-15T02:59:15.360Z,13.65
2023-04-15T03:01:42.739Z,14.07
2023-04-15T03:04:10.616Z,11.40
2023-04-15T03:06:37.863Z,14.20
2023-04-15T03:09:05.574Z,12.27
2023-04-15T03:11:35.410Z,13.70
2023-04-15T03:14:03.522Z,11.60
2023-04-15T03:16:30.851Z,13.95
2023-04-15T03:18:58.017Z,13.15
2023-04-15T03:21:26.775Z,13.40
2023-04-15T03:23:54.008Z,15.73
2023-04-15T03:26:31.723Z,13.63
2023-04-15T03:28:59.284Z,15.02
2023-04-15T03:31:26.759Z,16.20
2023-04-15T03:33:54.116Z,15.23
2023-04-15T03:36:21.321Z,13.40
2023-04-15T03:38:49.433Z,14.02
2023-04-15T03:41:16.728Z,11.65
2023-04-15T03:43:43.914Z,12.50
2023-04-15T03:46:11.169Z,15.77
2023-04-15T03:48:38.488Z,12.85
2023-04-15T03:51:05.966Z,12.00
2023-04-15T03:53:33.150Z,13.13
2023-04-15T03:56:00.329Z,11.88
2023-04-15T03:58:27.523Z,13.07
2023-04-15T04:00:55.089Z,10.52
2023-04-15T04:03:22.554Z,14.52
2023-04-15T04:05:51.664Z,13.50
2023-04-15T04:08:19.655Z,12.50
2023-04-15T04:10:46.854Z,13.02
2023-04-15T04:13:14.034Z,11.73
2023-04-15T04:15:41.463Z,13.55
2023-04-15T04:18:08.796Z,10.07
2023-04-15T04:20:36.281Z,10.63
2023-04-15T04:23:03.467Z,12.57
2023-04-15T04:25:30.638Z,12.30
2023-04-15T04:27:57.928Z,13.50
2023-04-15T04:30:25.376Z,9.30
2023-04-15T04:32:52.748Z,10.23
2023-04-15T04:35:20.064Z,10.82
2023-04-15T04:37:47.399Z,10.02
2023-04-15T04:40:14.733Z,8.55
2023-04-15T04:42:41.987Z,11.30
2023-04-15T04:45:10.159Z,9.25
2023-04-15T04:47:37.453Z,8.50
2023-04-15T04:50:05.173Z,8.57
2023-04-15T04:52:32.502Z,9.50
2023-04-15T04:54:59.686Z,8.65
2023-04-15T04:57:26.817Z,10.95
2023-04-15T04:59:54.084Z,11.93
2023-04-15T05:02:21.657Z,7.22
2023-04-15T05:04:50.418Z,8.77
2023-04-15T05:07:17.618Z,7.53
2023-04-15T05:09:44.766Z,10.27
2023-04-15T05:12:15.074Z,7.70
2023-04-15T05:14:42.491Z,6.47
2023-04-15T05:17:10.025Z,7.87
2023-04-15T05:19:37.194Z,7.73
2023-04-15T05:22:04.463Z,7.57
2023-04-15T05:24:31.688Z,6.35
2023-04-15T05:26:58.880Z,6.72
2023-04-15T05:29:26.334Z,6.70
2023-04-15T05:31:53.504Z,5.13
2023-04-15T05:34:20.759Z,6.22
2023-04-15T05:36:48.070Z,5.88
2023-04-15T05:39:15.522Z,6.50
2023-04-15T05:41:42.803Z,6.37
2023-04-15T05:44:10.084Z,5.65
2023-04-15T05:46:37.485Z,6.40
2023-04-15T05:49:04.732Z,5.67
2023-04-15T05:51:32.065Z,5.68
2023-04-15T05:53:59.338Z,5.13
2023-04-15T05:56:27.181Z,4.80
2023-04-15T05:58:54.537Z,7.10
2023-04-15T06:01:22.334Z,5.13
2023-04-15T06:03:49.751Z,4.35
2023-04-15T06:06:17.095Z,6.70
2023-04-15T06:08:44.270Z,5.10
2023-04-15T06:11:11.465Z,5.45
2023-04-15T06:13:38.654Z,3.55
2023-04-15T06:16:06.375Z,4.13
2023-04-15T06:18:33.687Z,3.80
2023-04-15T06:21:01.045Z,4.10
2023-04-15T06:23:28.407Z,3.00
2023-04-15T06:25:55.607Z,5.25
2023-04-15T06:28:22.757Z,3.17
2023-04-15T06:30:50.020Z,3.08
2023-04-15T06:33:17.714Z,2.83
2023-04-15T06:35:44.910Z,3.17
2023-04-15T06:38:12.355Z,2.50
2023-04-15T06:40:39.567Z,3.78
2023-04-15T06:43:08.073Z,2.40
2023-04-15T06:45:35.429Z,2.28
2023-04-15T06:48:02.675Z,2.85
2023-04-15T06:50:30.094Z,1.92
2023-04-15T06:52:57.436Z,2.53
2023-04-15T06:55:24.620Z,4.72
2023-04-15T06:57:51.797Z,2.55
2023-04-15T07:00:19.453Z,2.33
2023-04-15T07:02:46.890Z,2.90
2023-04-15T07:05:14.347Z,1.90
2023-04-15T07:07:42.312Z,2.33
2023-04-15T07:10:10.213Z,2.28
2023-04-15T07:12:38.599Z,1.02
2023-04-15T07:17:34.399Z,2.55
2023-04-15T07:20:01.632Z,1.60
2023-04-15T07:22:28.919Z,1.15
2023-04-15T07:24:56.418Z,1.67
2023-04-15T07:27:25.662Z,3.57
2023-04-15T07:29:53.304Z,3.22
2023-04-15T07:32:20.971Z,2.27
2023-04-15T07:34:48.179Z,2.35
2023-04-15T07:37:15.818Z,3.00
2023-04-15T07:39:43.717Z,3.53
2023-04-15T07:42:11.024Z,1.75
2023-04-15T07:44:38.252Z,3.17
2023-04-15T07:47:05.500Z,2.22
2023-04-15T07:49:32.741Z,6.28
2023-04-15T07:52:00.623Z,2.42
2023-04-15T07:54:27.857Z,1.80
2023-04-15T07:56:56.137Z,2.88
2023-04-15T07:59:23.404Z,4.88
2023-04-15T08:01:50.678Z,9.82
2023-04-15T08:04:18.144Z,2.10
2023-04-15T08:06:45.691Z,1.27
2023-04-15T08:09:12.874Z,3.97
2023-04-15T08:11:41.228Z,6.50
2023-04-15T08:14:08.461Z,2.78
2023-04-15T08:16:35.969Z,1.52
2023-04-15T08:19:03.737Z,5.43
2023-04-15T08:21:31.558Z,2.35
2023-04-15T08:23:58.852Z,3.00
2023-04-15T08:26:26.513Z,2.92
2023-04-15T08:28:53.841Z,6.85
2023-04-15T08:31:22.013Z,1.98
2023-04-15T08:33:49.389Z,2.10
2023-04-15T08:36:16.617Z,6.75
2023-04-15T08:38:45.688Z,2.83
2023-04-15T08:41:27.429Z,3.50
2023-04-15T08:44:01.459Z,2.17
2023-04-15T08:46:30.211Z,2.78
2023-04-15T08:48:58.997Z,3.80
2023-04-15T08:51:27.305Z,1.63
2023-04-15T08:53:55.024Z,1.05
2023-04-15T08:56:29.242Z,2.95
2023-04-15T08:58:57.433Z,2.25
2023-04-15T09:01:25.772Z,1.05
2023-04-15T09:03:57.233Z,1.35
2023-04-15T09:06:25.808Z,1.55
2023-04-15T09:11:22.803Z,1.15
2023-04-15T09:13:50.865Z,2.22
2023-04-15T09:16:18.884Z,5.43
2023-04-15T09:18:46.265Z,1.30
2023-04-15T09:21:17.480Z,0.80
2023-04-15T09:24:02.672Z,0.60
2023-04-15T09:26:40.432Z,3.47
2023-04-15T09:29:10.026Z,0.90
2023-04-15T09:31:38.005Z,1.27
2023-04-15T09:34:05.784Z,0.70
2023-04-15T09:36:50.415Z,0.57
2023-04-15T09:39:18.299Z,4.25
2023-04-15T09:41:46.033Z,0.93
2023-04-15T09:44:27.064Z,0.35
2023-04-15T09:46:54.282Z,0.75
2023-04-15T09:49:21.596Z,1.02
2023-04-15T09:52:04.114Z,0.75
2023-04-15T09:54:38.679Z,0.90
2023-04-15T09:57:10.473Z,1.05
2023-04-15T09:59:37.881Z,4.45
2023-04-15T10:02:07.650Z,1.27
2023-04-15T10:04:41.005Z,1.75
2023-04-15T10:07:10.024Z,0.65
2023-04-15T10:09:39.626Z,1.85
2023-04-15T10:12:07.462Z,0.65
2023-04-15T10:14:41.558Z,1.63
2023-04-15T10:17:14.825Z,1.88
2023-04-15T10:19:42.668Z,1.63
2023-04-15T10:22:10.574Z,2.75
2023-04-15T10:24:40.545Z,5.13
2023-04-15T10:27:08.695Z,1.98
2023-04-15T10:29:36.633Z,0.65
2023-04-15T10:32:04.938Z,6.63
2023-04-15T10:34:33.371Z,1.20
2023-04-15T10:39:34.764Z,1.90
2023-04-15T10:42:19.382Z,2.00
2023-04-15T10:44:52.284Z,0.75
2023-04-15T10:47:21.725Z,2.50
2023-04-15T10:50:02.618Z,0.68
2023-04-15T10:52:30.482Z,1.55
2023-04-15T10:55:14.438Z,2.72
2023-04-15T10:57:43.209Z,0.85
2023-04-15T11:00:18.014Z,2.28
2023-04-15T11:02:53.636Z,0.65
2023-04-15T11:05:43.235Z,3.40
2023-04-15T11:08:15.195Z,0.77
2023-04-15T11:10:42.492Z,0.75
2023-04-15T11:13:12.700Z,0.38
2023-04-15T11:15:47.319Z,0.70
2023-04-15T11:18:25.888Z,2.45
2023-04-15T11:21:06.025Z,1.15
2023-04-15T11:23:38.898Z,1.25
2023-04-15T11:26:14.947Z,1.60
2023-04-15T11:28:45.295Z,1.10
2023-04-15T11:34:05.423Z,0.10
2023-04-15T11:34:21.210Z,0.52
2023-04-15T11:36:33.130Z,0.47
2023-04-15T11:39:00.910Z,0.30
2023-04-15T11:41:28.177Z,0.35
2023-04-15T11:43:55.398Z,0.25
2023-04-15T11:46:30.785Z,0.30
2023-04-15T11:48:58.247Z,0.10
2023-04-15T11:51:25.510Z,1.95
2023-04-15T11:53:52.794Z,0.32
2023-04-15T11:56:26.115Z,0.70
2023-04-15T11:58:59.728Z,0.30
2023-04-15T12:01:41.383Z,0.70
2023-04-15T12:04:25.163Z,3.30
2023-04-15T12:06:53.335Z,0.50
2023-04-15T12:09:21.741Z,0.50
2023-04-15T12:11:53.921Z,1.38
2023-04-15T12:14:26.176Z,0.82
2023-04-15T12:17:03.136Z,1.15
2023-04-15T12:19:42.939Z,0.70
2023-04-15T12:22:16.583Z,0.40
2023-04-15T12:24:48.175Z,1.75
2023-04-15T12:27:17.177Z,0.52
2023-04-15T12:29:44.583Z,0.40
2023-04-15T12:32:17.693Z,0.60
2023-04-15T12:34:54.535Z,0.50
2023-04-15T12:37:22.163Z,0.20
2023-04-15T12:39:50.515Z,1.15
2023-04-15T12:42:18.757Z,0.30
2023-04-15T12:44:46.552Z,0.30
2023-04-15T12:47:14.304Z,3.40
2023-04-15T12:49:41.851Z,0.85
2023-04-15T12:52:09.196Z,0.43
2023-04-15T12:54:36.659Z,0.10
2023-04-15T12:57:06.816Z,0.82
2023-04-15T12:59:35.817Z,0.55
2023-04-15T13:02:04.150Z,0.10
2023-04-15T13:06:59.580Z,0.75
2023-04-15T13:09:27.188Z,0.52
2023-04-15T13:11:54.710Z,0.50
2023-04-15T13:14:22.178Z,0.20
2023-04-15T13:16:49.439Z,2.22
2023-04-15T13:19:16.643Z,0.30
2023-04-15T13:21:43.904Z,0.30
2023-04-15T13:24:11.283Z,0.43
2023-04-15T13:26:38.594Z,0.30
2023-04-15T13:29:06.097Z,0.17
2023-04-15T13:31:33.384Z,0.17
2023-04-15T13:34:03.068Z,2.35
2023-04-15T13:36:30.739Z,1.13
2023-04-15T13:38:58.485Z,0.38
2023-04-15T13:41:25.978Z,0.30
2023-04-15T13:43:53.136Z,0.47
2023-04-15T13:46:20.621Z,0.20
2023-04-15T13:48:48.108Z,0.10
2023-04-15T13:51:15.492Z,0.68
2023-04-15T13:53:42.673Z,0.20
2023-04-15T13:56:10.895Z,0.68
2023-04-15T13:58:38.605Z,0.45
2023-04-15T14:01:07.442Z,4.25
2023-04-15T14:03:36.569Z,0.30
2023-04-15T14:06:05.866Z,0.10
2023-04-15T14:08:33.686Z,0.40
2023-04-15T14:11:01.132Z,1.25
2023-04-15T14:13:28.603Z,0.93
2023-04-15T14:15:57.555Z,1.77
2023-04-15T14:18:25.316Z,0.82
2023-04-15T14:20:52.697Z,0.50
2023-04-15T14:23:20.134Z,1.63
2023-04-15T14:25:48.451Z,0.90
2023-04-15T14:30:43.935Z,0.40
2023-04-15T14:33:11.539Z,0.65
2023-04-15T14:35:40.633Z,0.25
2023-04-15T14:38:10.985Z,0.20
2023-04-15T14:40:39.147Z,0.17
2023-04-15T14:43:06.516Z,0.30
2023-04-15T14:45:33.945Z,0.35
2023-04-15T14:48:01.639Z,0.75
2023-04-15T14:50:28.920Z,0.50
2023-04-15T14:52:56.110Z,2.42
2023-04-15T14:55:23.379Z,0.45
2023-04-15T14:57:50.640Z,1.13
2023-04-15T15:00:18.106Z,0.50
2023-04-15T15:02:47.683Z,1.95
2023-04-15T15:05:16.447Z,0.32
2023-04-15T15:07:43.925Z,1.83
2023-04-15T15:10:11.222Z,0.95
2023-04-15T15:12:38.589Z,3.13
2023-04-15T15:15:15.528Z,1.30
2023-04-15T15:17:53.846Z,1.73
2023-04-15T15:20:21.791Z,1.55
2023-04-15T15:22:49.175Z,3.30
2023-04-15T15:25:16.700Z,1.50
2023-04-15T15:27:44.074Z,2.78
2023-04-15T15:30:12.753Z,0.93
2023-04-15T15:32:41.944Z,3.80
2023-04-15T15:35:10.347Z,0.77
2023-04-15T15:37:38.374Z,0.50
2023-04-15T15:40:07.119Z,0.70
2023-04-15T15:42:35.055Z,0.50
2023-04-15T15:45:04.836Z,2.25
2023-04-15T15:47:32.188Z,2.40
2023-04-15T15:50:02.344Z,0.43
2023-04-15T15:52:30.856Z,0.68
2023-04-15T15:54:58.149Z,0.73
2023-04-15T15:57:25.400Z,0.82
2023-04-15T16:00:04.813Z,1.02
2023-04-15T16:03:04.381Z,1.73
2023-04-15T16:05:25.377Z,0.70
2023-04-15T16:07:52.761Z,2.33
2023-04-15T16:10:20.016Z,1.50
2023-04-15T16:12:47.414Z,1.73
2023-04-15T16:15:14.835Z,0.93
2023-04-15T16:17:42.147Z,0.60
2023-04-15T16:20:10.121Z,1.50
2023-04-15T16:22:37.642Z,1.77
2023-04-15T16:25:05.485Z,0.70
2023-04-15T16:27:33.828Z,0.65
2023-04-15T16:30:03.068Z,0.80
2023-04-15T16:32:30.725Z,0.65
2023-04-15T16:34:57.981Z,1.05
2023-04-15T16:37:25.474Z,0.30
2023-04-15T16:39:55.635Z,1.25
2023-04-15T16:42:23.091Z,1.77
2023-04-15T16:44:50.385Z,1.30
2023-04-15T16:47:17.688Z,0.38
2023-04-15T16:49:44.910Z,2.88
2023-04-15T16:52:12.146Z,1.58
2023-04-15T16:54:41.615Z,2.05
2023-04-15T16:57:09.221Z,0.98
2023-04-15T16:59:37.854Z,1.23
2023-04-15T17:02:05.199Z,1.95
2023-04-15T17:04:32.743Z,0.90
2023-04-15T17:07:00.125Z,1.25
2023-04-15T17:09:27.333Z,1.33
2023-04-15T17:11:54.611Z,1.77
2023-04-15T17:14:21.887Z,1.35
2023-04-15T17:16:49.175Z,2.97
2023-04-15T17:19:16.380Z,1.10
2023-04-15T17:21:43.609Z,1.45
2023-04-15T17:24:11.011Z,0.65
2023-04-15T17:26:38.380Z,0.52
2023-04-15T17:29:05.886Z,1.13
2023-04-15T17:31:33.471Z,1.33
2023-04-15T17:34:08.046Z,1.63
2023-04-15T17:36:37.044Z,2.92
2023-04-15T17:39:04.649Z,1.40
2023-04-15T17:41:32.105Z,1.92
2023-04-15T17:43:59.411Z,2.33
2023-04-15T17:46:27.420Z,3.10
2023-04-15T17:48:54.670Z,4.40
2023-04-15T17:51:21.836Z,3.92
2023-04-15T17:53:49.138Z,7.93
2023-04-15T17:56:16.435Z,2.42
2023-04-15T17:58:43.931Z,3.17
2023-04-15T18:01:11.136Z,3.10
2023-04-15T18:03:38.468Z,1.50
2023-04-15T18:06:06.416Z,3.63
2023-04-15T18:08:33.782Z,2.53
2023-04-15T18:11:01.115Z,6.28
2023-04-15T18:13:28.478Z,2.15
2023-04-15T18:15:56.481Z,2.45
2023-04-15T18:18:25.123Z,2.47
2023-04-15T18:20:52.406Z,1.80
2023-04-15T18:23:19.724Z,1.90
2023-04-15T18:25:47.008Z,3.45
2023-04-15T18:28:15.823Z,5.75
2023-04-15T18:30:42.997Z,5.07
2023-04-15T18:33:10.212Z,5.47
2023-04-15T18:35:37.430Z,4.38
2023-04-15T18:38:04.801Z,8.05
2023-04-15T18:40:32.007Z,8.32
2023-04-15T18:42:59.168Z,9.00
2023-04-15T18:45:26.523Z,6.53
2023-04-15T18:47:53.984Z,4.90
2023-04-15T18:50:21.292Z,5.47
2023-04-15T18:52:48.554Z,6.43
2023-04-15T18:55:18.513Z,4.90
2023-04-15T18:57:46.740Z,8.07
2023-04-15T19:00:17.192Z,7.20
2023-04-15T19:02:44.621Z,5.13
2023-04-15T19:05:11.996Z,8.30
2023-04-15T19:07:39.442Z,9.95
2023-04-15T19:10:08.252Z,12.00
2023-04-15T19:12:36.639Z,16.40
2023-04-15T19:17:31.944Z,15.77
2023-04-15T19:19:59.322Z,19.40
2023-04-15T19:22:29.423Z,15.00
2023-04-15T19:24:56.774Z,18.27
2023-04-15T19:27:24.043Z,13.02
2023-04-15T19:29:51.251Z,14.90
2023-04-15T19:32:18.589Z,11.27
2023-04-15T19:34:46.077Z,11.57
2023-04-15T19:37:13.990Z,8.85
2023-04-15T19:39:41.333Z,9.63
2023-04-15T19:42:08.564Z,7.97
2023-04-15T19:44:37.263Z,7.85
2023-04-15T19:47:04.636Z,12.23
2023-04-15T19:49:31.853Z,9.93
2023-04-15T19:51:59.030Z,8.48
2023-04-15T19:54:26.533Z,10.30
2023-04-15T19:56:53.761Z,7.50
2023-04-15T19:59:21.002Z,7.38
2023-04-15T20:01:48.364Z,6.25
2023-04-15T20:04:15.732Z,6.13
2023-04-15T20:06:43.168Z,6.13
2023-04-15T20:09:11.544Z,5.20
2023-04-15T20:14:26.615Z,6.07
2023-04-15T20:16:53.862Z,7.05
2023-04-15T20:19:21.081Z,6.28
2023-04-15T20:21:49.033Z,6.75
2023-04-15T20:24:17.036Z,13.23
2023-04-15T20:26:44.296Z,4.10
2023-04-15T20:29:11.567Z,7.28
2023-04-15T20:31:38.879Z,4.50
2023-04-15T20:34:06.404Z,5.35
2023-04-15T20:36:34.804Z,5.80
2023-04-15T20:41:29.164Z,6.70
2023-04-15T20:43:56.445Z,9.95
2023-04-15T20:46:25.903Z,4.85
2023-04-15T20:48:54.500Z,4.00
2023-04-15T20:51:21.727Z,20.35
2023-04-15T20:53:49.747Z,3.38
2023-04-15T20:56:16.924Z,2.35
2023-04-15T20:58:44.122Z,5.38
2023-04-15T21:01:11.435Z,2.50
2023-04-15T21:03:38.812Z,4.40
2023-04-15T21:06:06.082Z,3.83
2023-04-15T21:08:33.299Z,3.35
2023-04-15T21:11:00.474Z,3.70
2023-04-15T21:13:27.758Z,3.28
2023-04-15T21:15:55.032Z,2.67
2023-04-15T21:18:23.281Z,3.78
2023-04-15T21:21:00.988Z,3.08
2023-04-15T21:23:29.900Z,10.10
2023-04-15T21:25:58.848Z,2.58
2023-04-15T21:28:28.114Z,2.35
2023-04-15T21:30:56.552Z,4.78
2023-04-15T21:35:53.083Z,2.72
2023-04-15T21:38:23.159Z,3.25
2023-04-15T21:40:51.283Z,3.85
2023-04-15T21:43:18.693Z,3.50
2023-04-15T21:45:49.217Z,3.13
2023-04-15T21:48:33.199Z,3.10
2023-04-15T21:51:01.703Z,3.22
2023-04-15T21:53:28.966Z,3.03
2023-04-15T21:55:56.243Z,5.40
2023-04-15T21:58:23.511Z,3.40
2023-04-15T22:00:52.307Z,3.92
2023-04-15T22:03:19.905Z,3.97
2023-04-15T22:05:47.250Z,3.58
2023-04-15T22:08:14.546Z,4.50
2023-04-15T22:10:41.769Z,4.00
2023-04-15T22:13:11.110Z,4.93
2023-04-15T22:15:38.991Z,5.18
2023-04-15T22:18:06.628Z,4.55
2023-04-15T22:20:34.034Z,5.18
2023-04-15T22:23:03.946Z,5.43
2023-04-15T22:25:31.676Z,5.78
2023-04-15T22:27:58.941Z,4.45
2023-04-15T22:30:26.402Z,3.45
2023-04-15T22:32:53.658Z,3.70
2023-04-15T22:35:21.068Z,7.05
2023-04-15T22:37:48.309Z,5.70
2023-04-15T22:40:15.996Z,4.53
2023-04-15T22:42:43.236Z,4.38
2023-04-15T22:45:10.724Z,5.38
2023-04-15T22:47:38.186Z,9.23
2023-04-15T22:50:06.934Z,4.20
2023-04-15T22:52:34.156Z,4.22
2023-04-15T22:55:01.586Z,4.10
2023-04-15T22:57:29.252Z,5.83
2023-04-15T22:59:56.859Z,5.40
2023-04-15T23:02:24.548Z,3.65
2023-04-15T23:04:52.068Z,4.13
2023-04-15T23:07:19.328Z,2.90
2023-04-15T23:09:46.553Z,5.35
2023-04-15T23:12:14.091Z,4.75
2023-04-15T23:14:41.380Z,4.88
2023-04-15T23:17:08.618Z,5.15
2023-04-15T23:19:35.940Z,4.78
2023-04-15T23:22:03.400Z,6.03
2023-04-15T23:24:30.684Z,6.10
2023-04-15T23:26:57.903Z,7.15
2023-04-15T23:29:25.125Z,6.45
2023-04-15T23:31:52.397Z,6.45
2023-04-15T23:34:19.630Z,7.18
2023-04-15T23:36:47.651Z,4.32
2023-04-15T23:39:14.867Z,5.03
2023-04-15T23:41:42.065Z,6.50
2023-04-15T23:44:09.840Z,4.63
2023-04-15T23:46:37.093Z,7.28
2023-04-15T23:49:04.428Z,9.10
2023-04-15T23:51:31.608Z,8.50
2023-04-15T23:53:58.853Z,6.50
2023-04-15T23:56:26.146Z,7.47
2023-04-15T23:58:53.342Z,9.77
